Time;durP1;ratioP1;P1;durP2;ratioP2;P2;SDS_P1;SDS_P2;PMS_P1;PMS_P2;Temp;Humidity;BMP_temperature;BMP_pressure;BME280_temperature;BME280_humidity;BME280_pressure;Samples;Min_cycle;Max_cycle;Signal;HPM_P1;HPM_P2
2023/09/24 00:00:14;;;;;;;6.38;2.20;;;;;;;27.15;43.56;98728.22;5073347;28;20175;-88
2023/09/24 00:02:40;;;;;;;13.25;3.67;;;;;;;27.16;43.33;98735.25;5072435;28;20251;-87
2023/09/24 00:05:08;;;;;;;9.15;3.13;;;;;;;27.09;43.37;98731.69;5055734;28;20188;-87
2023/09/24 00:07:35;;;;;;;9.80;2.78;;;;;;;27.00;43.36;98730.16;5055280;28;20661;-87
2023/09/24 00:10:03;;;;;;;9.00;2.35;;;;;;;26.85;43.89;98722.19;5055425;28;20235;-87
2023/09/24 00:12:29;;;;;;;6.35;2.75;;;;;;;26.81;44.28;98726.25;5055457;28;20181;-87
2023/09/24 00:14:56;;;;;;;7.25;2.80;;;;;;;26.69;44.91;98717.03;5055603;28;20227;-87
2023/09/24 00:17:21;;;;;;;7.20;2.75;;;;;;;26.62;44.92;98717.00;5072734;28;20591;-87
2023/09/24 00:19:48;;;;;;;11.13;3.63;;;;;;;26.55;44.76;98710.69;5073050;28;20173;-88
2023/09/24 00:22:14;;;;;;;7.88;2.33;;;;;;;26.48;45.18;98714.34;5073213;28;20180;-87
2023/09/24 00:24:42;;;;;;;11.17;2.80;;;;;;;26.43;44.88;98722.16;5055020;28;20673;-87
2023/09/24 00:27:09;;;;;;;8.77;2.70;;;;;;;26.47;44.00;98715.34;5072830;28;20657;-87
2023/09/24 00:29:35;;;;;;;13.73;2.90;;;;;;;26.47;44.09;98710.81;5072465;28;20263;-87
2023/09/24 00:32:01;;;;;;;8.43;2.40;;;;;;;26.47;44.04;98713.50;5055352;28;20259;-86
2023/09/24 00:34:28;;;;;;;12.97;4.03;;;;;;;26.32;44.33;98710.06;5055383;28;20173;-87
2023/09/24 00:36:53;;;;;;;13.43;3.40;;;;;;;26.21;44.55;98706.00;5073183;28;20196;-87
2023/09/24 00:39:19;;;;;;;8.27;2.80;;;;;;;26.11;44.64;98704.63;5054867;28;20177;-87
2023/09/24 00:41:49;;;;;;;6.77;2.90;;;;;;;26.00;44.94;98700.56;5055248;28;20615;-88
2023/09/24 00:44:15;;;;;;;9.50;2.60;;;;;;;25.90;44.96;98704.56;5054928;28;20192;-87
2023/09/24 00:46:44;;;;;;;13.27;3.20;;;;;;;25.94;44.65;98705.88;5055084;28;20173;-87
2023/09/24 00:49:13;;;;;;;17.43;3.00;;;;;;;25.98;44.35;98707.16;5055229;28;20173;-87
2023/09/24 00:51:41;;;;;;;11.50;3.07;;;;;;;25.96;44.54;98715.41;5072773;28;20185;-87
2023/09/24 00:54:10;;;;;;;13.17;2.93;;;;;;;25.91;44.82;98717.00;5054990;28;20182;-88
2023/09/24 00:56:36;;;;;;;9.47;2.87;;;;;;;25.89;44.87;98716.34;5073128;28;20169;-87
2023/09/24 00:59:06;;;;;;;9.67;3.07;;;;;;;25.83;44.67;98717.94;5072576;28;20202;-87
2023/09/24 01:01:34;;;;;;;9.90;2.80;;;;;;;25.77;45.28;98718.66;5072272;28;20177;-87
2023/09/24 01:04:00;;;;;;;5.60;2.10;;;;;;;25.77;45.26;98721.34;5072390;28;20197;-87
2023/09/24 01:06:25;;;;;;;9.70;2.63;;;;;;;25.81;45.35;98728.03;5055188;28;20177;-87
2023/09/24 01:08:52;;;;;;;6.90;3.03;;;;;;;25.79;45.05;98730.03;5034874;28;20180;-88
2023/09/24 01:11:17;;;;;;;10.53;3.50;;;;;;;25.71;45.48;98730.16;5056374;28;20177;-87
2023/09/24 01:13:45;;;;;;;6.30;2.50;;;;;;;25.63;45.99;98725.72;5076107;28;20539;-86
2023/09/24 01:16:12;;;;;;;8.63;2.50;;;;;;;25.70;45.78;98731.19;5041993;28;20259;-87
2023/09/24 01:18:41;;;;;;;11.17;2.50;;;;;;;25.77;45.69;98726.72;5075723;28;20646;-87
2023/09/24 01:21:15;;;;;;;10.03;2.80;;;;;;;25.84;45.89;98732.19;5076102;28;20680;-87
2023/09/24 01:23:45;;;;;;;11.10;3.17;;;;;;;25.85;46.39;98732.00;5057913;28;20205;-87
2023/09/24 01:26:16;;;;;;;10.40;3.33;;;;;;;25.89;46.28;98727.09;5057905;28;20181;-87
2023/09/24 01:28:43;;;;;;;6.93;3.40;;;;;;;25.85;46.56;98729.31;5076201;28;20150;-87
2023/09/24 01:31:08;;;;;;;11.07;4.07;;;;;;;25.80;46.69;98726.34;5075753;28;20173;-87
2023/09/24 01:33:39;;;;;;;10.43;3.47;;;;;;;25.75;47.19;98719.88;5075451;28;20176;-87
2023/09/24 01:36:10;;;;;;;9.90;3.63;;;;;;;25.76;47.23;98719.69;5075755;28;20210;-87
2023/09/24 01:38:40;;;;;;;9.53;3.77;;;;;;;25.80;47.10;98720.16;5075699;28;20177;-87
2023/09/24 01:41:10;;;;;;;8.70;3.20;;;;;;;25.81;46.86;98719.97;5076081;28;20504;-87
2023/09/24 01:43:43;;;;;;;10.93;4.30;;;;;;;25.83;46.91;98733.19;5075595;28;20292;-87
2023/09/24 01:46:13;;;;;;;10.33;2.90;;;;;;;25.81;46.98;98735.25;5076296;28;20203;-87
2023/09/24 01:48:39;;;;;;;6.87;2.90;;;;;;;25.83;47.19;98735.88;5057424;28;20179;-87
2023/09/24 01:51:12;;;;;;;6.00;3.03;;;;;;;25.80;46.91;98729.03;5075320;28;20207;-87
2023/09/24 01:53:38;;;;;;;15.80;3.90;;;;;;;25.75;47.36;98733.31;5075310;28;20204;-87
2023/09/24 01:56:07;;;;;;;19.63;3.83;;;;;;;25.70;47.45;98725.81;5057536;28;20173;-87
2023/09/24 01:58:35;;;;;;;6.47;3.70;;;;;;;25.70;47.58;98731.19;5075110;28;20165;-87
2023/09/24 02:01:02;;;;;;;14.30;4.03;;;;;;;25.67;47.99;98742.28;5074996;28;20207;-87
2023/09/24 02:03:29;;;;;;;9.10;3.13;;;;;;;25.68;48.20;98743.97;5074990;28;20197;-87
2023/09/24 02:05:55;;;;;;;9.73;3.57;;;;;;;25.71;47.89;98740.88;5074800;28;20169;-88
2023/09/24 02:08:22;;;;;;;14.50;3.60;;;;;;;25.77;47.65;98742.84;5075350;28;20210;-87
2023/09/24 02:10:48;;;;;;;13.43;3.63;;;;;;;25.73;47.73;98746.94;5075306;28;20195;-88
2023/09/24 02:13:15;;;;;;;7.57;3.90;;;;;;;25.68;47.92;98738.59;5057219;28;20165;-87
2023/09/24 02:15:45;;;;;;;6.80;3.40;;;;;;;25.67;48.31;98746.81;5074445;28;20256;-87
2023/09/24 02:18:11;;;;;;;6.17;3.20;;;;;;;25.64;48.40;98748.88;5075312;28;20168;-87
2023/09/24 02:20:41;;;;;;;8.83;3.60;;;;;;;25.60;48.78;98744.06;5074280;28;20651;-87
2023/09/24 02:23:07;;;;;;;8.63;3.13;;;;;;;25.56;49.01;98740.06;5056493;28;20659;-87
2023/09/24 02:25:36;;;;;;;9.90;3.23;;;;;;;25.53;49.48;98740.44;5056962;28;20252;-87
2023/09/24 02:28:04;;;;;;;11.80;3.73;;;;;;;25.48;49.61;98746.34;5056773;28;20207;-87
2023/09/24 02:30:31;;;;;;;7.83;2.87;;;;;;;25.48;49.65;98742.84;5074417;28;20215;-87
2023/09/24 02:32:57;;;;;;;8.17;3.63;;;;;;;25.47;49.84;98751.91;5056834;28;20505;-87
2023/09/24 02:35:24;;;;;;;18.67;4.77;;;;;;;25.42;49.86;98747.06;5056821;28;20241;-87
2023/09/24 02:37:50;;;;;;;10.63;3.57;;;;;;;25.36;49.87;98742.44;5074330;28;20180;-87
2023/09/24 02:40:22;;;;;;;11.50;3.93;;;;;;;25.34;50.03;98738.28;5056633;28;20209;-87
2023/09/24 02:42:53;;;;;;;16.20;4.47;;;;;;;25.30;50.09;98736.97;5057742;28;20172;-88
2023/09/24 02:45:20;;;;;;;9.97;3.20;;;;;;;25.26;50.41;98733.81;5074031;28;20193;-87
2023/09/24 02:47:50;;;;;;;7.97;3.13;;;;;;;25.23;50.64;98747.59;5073924;28;20173;-87
2023/09/24 02:50:18;;;;;;;5.20;3.57;;;;;;;25.23;50.68;98738.72;5056487;28;20174;-87
2023/09/24 02:52:45;;;;;;;10.07;3.30;;;;;;;25.14;51.00;98735.28;5056448;28;20181;-87
2023/09/24 02:55:15;;;;;;;7.70;3.23;;;;;;;25.12;50.85;98740.00;5074071;28;20184;-87
2023/09/24 02:57:44;;;;;;;8.90;3.90;;;;;;;25.10;50.70;98736.66;5074458;28;20161;-87
2023/09/24 03:00:21;;;;;;;7.33;3.37;;;;;;;25.12;50.91;98739.16;5068035;28;20197;-88
2023/09/24 03:02:48;;;;;;;10.70;3.97;;;;;;;25.07;50.74;98744.22;5036609;28;20165;-87
2023/09/24 03:05:20;;;;;;;7.60;4.23;;;;;;;25.06;50.72;98740.72;5037408;28;20518;-87
2023/09/24 03:07:49;;;;;;;7.90;3.70;;;;;;;24.96;51.01;98749.03;5050998;28;20582;-87
2023/09/24 03:10:16;;;;;;;8.80;4.23;;;;;;;24.85;51.22;98752.13;5073726;28;20176;-87
2023/09/24 03:12:43;;;;;;;10.27;3.90;;;;;;;24.77;51.29;98754.00;5073566;28;20539;-87
2023/09/24 03:15:13;;;;;;;11.07;3.60;;;;;;;24.73;51.15;98745.50;5056236;28;20173;-87
2023/09/24 03:17:42;;;;;;;8.27;3.90;;;;;;;24.71;51.44;98754.75;5056023;28;20169;-86
2023/09/24 03:20:16;;;;;;;14.93;4.03;;;;;;;24.62;52.34;98748.59;5055600;28;20804;-87
2023/09/24 03:22:51;;;;;;;9.13;3.83;;;;;;;24.60;52.51;98758.66;5055796;28;20173;-87
2023/09/24 03:25:18;;;;;;;9.07;3.90;;;;;;;24.59;52.92;98762.34;5073602;28;20165;-87
2023/09/24 03:27:49;;;;;;;12.57;4.50;;;;;;;24.57;53.13;98759.03;5056084;28;20173;-87
2023/09/24 03:30:19;;;;;;;8.60;3.93;;;;;;;24.58;53.25;98760.66;5073739;28;20201;-87
2023/09/24 03:32:48;;;;;;;17.70;4.90;;;;;;;24.60;53.33;98760.50;5073320;28;20187;-87
2023/09/24 03:35:19;;;;;;;9.90;3.50;;;;;;;24.61;53.11;98770.19;5072580;28;20230;-87
2023/09/24 03:37:46;;;;;;;10.00;4.00;;;;;;;24.61;53.00;98776.41;5073360;28;20200;-87
2023/09/24 03:40:17;;;;;;;8.60;3.77;;;;;;;24.48;53.88;98778.81;5073574;28;20184;-87
2023/09/24 03:42:44;;;;;;;9.03;4.17;;;;;;;24.39;54.18;98779.91;5039381;28;20202;-87
2023/09/24 03:45:12;;;;;;;10.17;3.63;;;;;;;24.34;54.21;98768.88;5055458;28;20197;-87
2023/09/24 03:47:40;;;;;;;6.77;3.43;;;;;;;24.26;54.34;98760.91;5055397;28;20176;-87
2023/09/24 03:50:13;;;;;;;8.93;3.80;;;;;;;24.17;54.47;98761.94;5073486;28;20230;-87
2023/09/24 03:52:41;;;;;;;7.10;4.00;;;;;;;24.13;54.79;98760.63;5055773;28;20189;-87
2023/09/24 03:55:09;;;;;;;12.37;4.33;;;;;;;24.08;54.74;98763.81;5072843;28;20176;-87
2023/09/24 03:57:36;;;;;;;7.13;3.90;;;;;;;24.09;54.70;98756.63;5073665;28;20165;-87
2023/09/24 04:00:37;;;;;;;13.27;4.17;;;;;;;24.04;54.81;98764.31;5055457;28;20205;-87
2023/09/24 04:02:57;;;;;;;12.50;4.20;;;;;;;24.05;54.77;98766.84;5069437;28;20264;-87
2023/09/24 04:05:23;;;;;;;17.30;4.00;;;;;;;24.13;54.31;98779.38;5073804;28;20188;-87
2023/09/24 04:07:51;;;;;;;11.60;3.60;;;;;;;24.16;54.16;98795.09;5073145;28;20306;-87
2023/09/24 04:10:19;;;;;;;11.70;4.27;;;;;;;24.18;54.26;98795.75;5073067;28;20188;-87
2023/09/24 04:12:46;;;;;;;8.23;3.60;;;;;;;24.13;53.93;98803.47;5055185;28;20585;-88
2023/09/24 04:15:18;;;;;;;10.00;3.80;;;;;;;24.06;53.79;98807.81;5072447;28;20207;-87
2023/09/24 04:17:46;;;;;;;10.07;3.53;;;;;;;24.02;53.54;98809.19;5073042;28;20184;-87
2023/09/24 04:20:20;;;;;;;6.63;3.80;;;;;;;23.97;53.03;98808.88;5073125;28;20177;-87
2023/09/24 04:22:45;;;;;;;10.47;3.20;;;;;;;23.96;52.72;98812.53;5072985;28;20248;-87
2023/09/24 04:25:15;;;;;;;8.73;3.17;;;;;;;23.92;52.87;98809.41;5072615;28;20260;-87
2023/09/24 04:27:44;;;;;;;8.37;3.70;;;;;;;23.88;53.07;98812.56;5055107;28;20181;-87
2023/09/24 04:30:16;;;;;;;10.33;3.93;;;;;;;23.82;53.45;98814.09;5055315;28;20196;-87
2023/09/24 04:32:54;;;;;;;7.83;3.67;;;;;;;23.76;53.53;98812.97;5073413;28;20157;-87
2023/09/24 04:35:20;;;;;;;8.63;4.27;;;;;;;23.73;53.92;98807.94;5072795;28;20561;-87
2023/09/24 04:37:51;;;;;;;8.13;4.50;;;;;;;23.75;54.13;98805.91;5055358;28;20213;-87
2023/09/24 04:40:18;;;;;;;8.97;3.63;;;;;;;23.78;54.37;98800.22;5055055;28;20251;-87
2023/09/24 04:42:45;;;;;;;8.10;3.97;;;;;;;23.76;54.57;98791.53;5055191;28;20211;-87
2023/09/24 04:45:12;;;;;;;10.70;3.63;;;;;;;23.78;54.69;98794.88;5072641;28;20280;-87
2023/09/24 04:47:40;;;;;;;12.90;4.17;;;;;;;23.84;54.66;98796.88;5074493;28;20181;-87
2023/09/24 04:50:10;;;;;;;11.57;3.77;;;;;;;23.92;54.57;98800.53;5076735;28;20200;-87
2023/09/24 04:52:37;;;;;;;8.77;3.87;;;;;;;23.98;54.42;98795.28;5059384;28;20173;-87
2023/09/24 04:55:05;;;;;;;11.33;3.80;;;;;;;24.04;54.38;98802.63;5076903;28;20176;-87
2023/09/24 04:57:31;;;;;;;9.70;4.47;;;;;;;24.11;54.03;98800.16;5075933;28;20177;-87
2023/09/24 04:59:56;;;;;;;7.27;3.50;;;;;;;24.16;53.83;98809.31;5076070;28;20272;-87
2023/09/24 05:02:23;;;;;;;8.93;3.50;;;;;;;24.21;53.86;98814.97;5058801;28;20264;-87
2023/09/24 05:04:52;;;;;;;5.93;3.87;;;;;;;24.22;54.32;98810.44;5058323;28;20193;-87
2023/09/24 05:07:19;;;;;;;11.03;4.17;;;;;;;24.27;54.59;98808.91;5076404;28;20619;-87
2023/09/24 05:09:45;;;;;;;7.03;3.67;;;;;;;24.35;55.24;98810.72;5076241;28;20557;-87
2023/09/24 05:12:13;;;;;;;9.07;3.40;;;;;;;24.41;55.05;98813.53;5058264;28;20185;-87
2023/09/24 05:14:39;;;;;;;11.67;3.33;;;;;;;24.51;54.87;98813.31;5076305;28;20173;-87
2023/09/24 05:17:05;;;;;;;11.40;4.00;;;;;;;24.68;54.50;98812.22;5075923;28;20192;-87
2023/09/24 05:19:31;;;;;;;9.43;3.90;;;;;;;24.84;53.84;98813.97;5058230;28;20181;-87
2023/09/24 05:21:56;;;;;;;9.20;4.80;;;;;;;24.99;53.20;98813.03;5051135;28;20285;-87
2023/09/24 05:24:23;;;;;;;11.27;4.57;;;;;;;25.15;52.53;98816.59;5056024;28;20206;-87
2023/09/24 05:26:49;;;;;;;8.03;4.13;;;;;;;25.21;52.33;98810.50;5068546;28;20208;-87
2023/09/24 05:29:16;;;;;;;11.37;4.40;;;;;;;25.29;51.77;98815.81;5057922;28;20623;-88
2023/09/24 05:31:41;;;;;;;10.43;3.57;;;;;;;25.37;51.83;98818.38;5058112;28;20181;-87
2023/09/24 05:34:08;;;;;;;12.30;5.10;;;;;;;25.46;52.10;98822.69;5057972;28;20188;-87
2023/09/24 05:36:33;;;;;;;9.40;4.20;;;;;;;25.60;51.81;98821.91;5057694;28;20180;-87
2023/09/24 05:38:58;;;;;;;9.30;4.10;;;;;;;25.78;51.27;98822.38;5075858;28;20175;-87
2023/09/24 05:41:24;;;;;;;8.30;3.37;;;;;;;26.04;50.69;98824.59;5057494;28;20204;-87
2023/09/24 05:43:50;;;;;;;6.80;3.63;;;;;;;26.16;50.64;98829.34;5057401;28;20197;-87
2023/09/24 05:46:15;;;;;;;8.03;4.10;;;;;;;26.36;49.70;98823.38;5075182;28;20682;-87
2023/09/24 05:48:43;;;;;;;9.87;3.63;;;;;;;26.56;49.31;98830.66;5075925;28;20626;-87
2023/09/24 05:51:09;;;;;;;9.37;3.77;;;;;;;26.73;49.18;98831.25;5058611;28;20274;-88
2023/09/24 05:53:35;;;;;;;10.67;3.83;;;;;;;26.98;49.14;98835.28;5076039;28;20630;-88
2023/09/24 05:56:02;;;;;;;12.67;3.93;;;;;;;27.25;48.76;98834.47;5057619;28;20185;-87
2023/09/24 05:58:29;;;;;;;11.70;3.63;;;;;;;27.61;47.95;98838.97;5056735;28;20173;-88
2023/09/24 06:00:56;;;;;;;8.47;3.60;;;;;;;28.03;47.10;98828.91;5057469;28;20176;-87
2023/09/24 06:03:23;;;;;;;16.50;3.80;;;;;;;28.46;44.48;98829.50;5056975;28;20204;-88
2023/09/24 06:05:49;;;;;;;9.67;3.77;;;;;;;28.76;43.54;98827.38;5057726;28;20194;-87
2023/09/24 06:08:15;;;;;;;6.65;3.50;;;;;;;29.05;42.20;98837.81;5075354;28;20180;-88
2023/09/24 06:10:45;;;;;;;7.95;3.22;;;;;;;29.55;41.96;98844.50;5074916;28;20546;-88
2023/09/24 06:13:14;;;;;;;8.30;3.33;;;;;;;30.03;41.49;98842.38;5057248;28;20173;-88
2023/09/24 06:15:44;;;;;;;13.18;3.33;;;;;;;30.59;40.58;98839.06;5057448;28;20188;-88
2023/09/24 06:18:12;;;;;;;13.10;3.95;;;;;;;31.24;39.59;98851.41;5057440;28;20181;-87
2023/09/24 06:20:43;;;;;;;13.02;3.58;;;;;;;31.83;38.21;98859.91;5074883;28;20196;-88
2023/09/24 06:23:10;;;;;;;6.97;3.67;;;;;;;32.30;37.64;98854.88;5057390;28;20657;-88
2023/09/24 06:25:36;;;;;;;7.70;3.30;;;;;;;32.84;36.92;98851.28;5056981;28;20177;-88
2023/09/24 06:28:09;;;;;;;7.63;3.63;;;;;;;33.16;35.64;98861.69;5074181;28;20264;-88
2023/09/24 06:30:36;;;;;;;10.85;3.95;;;;;;;33.62;35.45;98857.44;5074479;28;20246;-88
2023/09/24 06:33:04;;;;;;;10.63;3.80;;;;;;;34.00;34.42;98865.97;5056712;28;20605;-88
2023/09/24 06:35:33;;;;;;;11.23;3.60;;;;;;;34.29;33.11;98864.19;5056802;28;20193;-88
2023/09/24 06:38:00;;;;;;;10.07;3.47;;;;;;;34.49;32.57;98862.72;5074145;28;20185;-88
2023/09/24 06:40:27;;;;;;;7.68;2.70;;;;;;;34.72;32.65;98852.88;5074275;28;20184;-89
2023/09/24 06:42:53;;;;;;;10.23;3.67;;;;;;;35.04;32.34;98854.00;5056632;28;20185;-89
2023/09/24 06:45:20;;;;;;;10.75;3.60;;;;;;;35.08;32.09;98850.59;5073998;28;20277;-89
2023/09/24 06:47:46;;;;;;;5.32;3.03;;;;;;;35.35;31.27;98852.69;5074159;28;20173;-89
2023/09/24 06:50:13;;;;;;;9.38;3.28;;;;;;;35.40;31.92;98845.44;5056729;28;20596;-89
2023/09/24 06:52:39;;;;;;;9.23;3.47;;;;;;;35.56;30.88;98846.53;5056600;28;20630;-89
2023/09/24 06:55:08;;;;;;;10.02;3.10;;;;;;;35.73;31.06;98848.16;5074075;28;20173;-89
2023/09/24 06:57:36;;;;;;;12.00;3.20;;;;;;;35.72;31.31;98857.41;5073904;28;20195;-90
2023/09/24 07:00:04;;;;;;;12.05;3.42;;;;;;;35.84;30.21;98856.50;5074218;28;20209;-90
2023/09/24 07:02:30;;;;;;;8.10;3.58;;;;;;;35.77;30.40;98852.03;5074426;28;20177;-90
2023/09/24 07:04:55;;;;;;;9.55;3.17;;;;;;;35.86;30.22;98862.53;5056196;28;20664;-89
2023/09/24 07:07:22;;;;;;;7.05;3.47;;;;;;;35.68;30.88;98853.56;5073658;28;20631;-89
2023/09/24 07:09:49;;;;;;;11.73;4.00;;;;;;;35.75;29.83;98853.38;5074052;28;20177;-89
2023/09/24 07:12:16;;;;;;;8.75;4.18;;;;;;;35.45;31.11;98850.97;5073555;28;20215;-89
2023/09/24 07:14:43;;;;;;;11.07;3.53;;;;;;;35.47;31.21;98851.53;5074165;28;20684;-89
2023/09/24 07:17:09;;;;;;;11.05;3.72;;;;;;;35.59;30.23;98854.19;5073647;28;20197;-89
2023/09/24 07:19:36;;;;;;;7.32;3.22;;;;;;;35.45;30.77;98850.13;5073392;28;20188;-89
2023/09/24 07:22:03;;;;;;;11.13;3.40;;;;;;;35.45;31.25;98858.31;5074056;28;20188;-89
2023/09/24 07:24:30;;;;;;;5.65;2.85;;;;;;;35.30;30.26;98855.34;5055716;28;20622;-89
2023/09/24 07:27:02;;;;;;;10.05;2.75;;;;;;;35.09;31.24;98851.44;5073466;28;20177;-89
2023/09/24 07:29:30;;;;;;;8.73;2.92;;;;;;;34.94;30.61;98845.66;5073759;28;20177;-90
2023/09/24 07:31:57;;;;;;;7.20;2.47;;;;;;;34.96;31.58;98841.59;5073094;28;20606;-89
2023/09/24 07:34:24;;;;;;;12.38;3.58;;;;;;;35.05;31.59;98842.06;5073614;28;20187;-89
2023/09/24 07:36:50;;;;;;;9.38;3.03;;;;;;;34.94;30.10;98849.19;5055585;28;20647;-89
2023/09/24 07:39:17;;;;;;;12.60;2.78;;;;;;;34.94;30.73;98851.09;5072879;28;20195;-89
2023/09/24 07:41:43;;;;;;;13.85;3.90;;;;;;;35.03;30.75;98844.19;5072896;28;20246;-88
2023/09/24 07:44:10;;;;;;;7.20;2.70;;;;;;;35.16;30.17;98841.19;5073145;28;20624;-90
2023/09/24 07:46:35;;;;;;;8.65;3.58;;;;;;;35.11;30.08;98841.09;5073032;28;20220;-89
2023/09/24 07:49:05;;;;;;;10.68;3.35;;;;;;;35.17;31.21;98843.66;5073420;28;20196;-89
2023/09/24 07:51:32;;;;;;;12.77;3.35;;;;;;;35.15;30.55;98853.97;5073090;28;20188;-89
2023/09/24 07:54:00;;;;;;;7.38;2.75;;;;;;;35.12;30.38;98850.91;5073149;28;20192;-89
2023/09/24 07:56:26;;;;;;;9.65;2.83;;;;;;;35.17;29.64;98861.91;5073142;28;20173;-88
2023/09/24 07:58:55;;;;;;;5.75;2.53;;;;;;;35.01;29.85;98847.16;5073033;28;20252;-89
2023/09/24 08:01:22;;;;;;;9.63;2.95;;;;;;;35.04;30.17;98840.38;5072718;28;20204;-88
2023/09/24 08:03:51;;;;;;;8.43;3.33;;;;;;;35.10;30.58;98845.72;5073336;28;20185;-89
2023/09/24 08:06:18;;;;;;;13.48;3.20;;;;;;;35.14;30.32;98843.34;5073127;28;20645;-89
2023/09/24 08:08:44;;;;;;;11.00;3.58;;;;;;;35.17;30.19;98838.22;5055337;28;20559;-89
2023/09/24 08:11:09;;;;;;;11.25;3.03;;;;;;;35.23;29.65;98833.69;5072988;28;20196;-89
2023/09/24 08:13:36;;;;;;;7.07;2.85;;;;;;;34.96;29.94;98833.44;5072776;28;20608;-88
2023/09/24 08:16:03;;;;;;;11.32;3.72;;;;;;;34.88;31.56;98828.38;5072802;28;20671;-89
2023/09/24 08:18:30;;;;;;;14.18;4.25;;;;;;;34.97;30.80;98823.38;5073521;28;20212;-89
2023/09/24 08:20:58;;;;;;;9.25;2.80;;;;;;;35.06;30.08;98817.28;5072588;28;20183;-89
2023/09/24 08:23:24;;;;;;;7.57;2.75;;;;;;;35.07;29.68;98816.22;5076143;28;20200;-89
2023/09/24 08:25:51;;;;;;;8.60;3.25;;;;;;;34.85;29.34;98811.72;5076531;28;20626;-89
2023/09/24 08:28:18;;;;;;;7.32;2.85;;;;;;;34.74;29.37;98816.16;5076874;28;20183;-88
2023/09/24 08:30:45;;;;;;;5.70;2.72;;;;;;;34.73;29.88;98819.09;5077011;28;20558;-89
2023/09/24 08:33:12;;;;;;;10.30;3.17;;;;;;;34.92;30.05;98820.56;5076458;28;20192;-88
2023/09/24 08:35:39;;;;;;;11.75;3.13;;;;;;;35.03;29.63;98819.66;5072196;28;20182;-89
2023/09/24 08:38:06;;;;;;;6.97;2.33;;;;;;;35.21;30.30;98830.38;5056642;28;20177;-89
2023/09/24 08:40:32;;;;;;;9.05;2.25;;;;;;;35.25;29.01;98825.28;5056664;28;20182;-89
2023/09/24 08:42:59;;;;;;;9.20;2.97;;;;;;;35.03;29.81;98814.22;5076707;28;20173;-90
2023/09/24 08:45:29;;;;;;;10.23;3.00;;;;;;;35.07;28.23;98807.22;5076529;28;20719;-88
2023/09/24 08:47:55;;;;;;;7.63;2.50;;;;;;;34.70;28.59;98797.81;5076235;28;20184;-89
2023/09/24 08:50:21;;;;;;;7.50;2.33;;;;;;;34.70;29.53;98803.28;5075847;28;20238;-89
2023/09/24 08:52:48;;;;;;;11.30;3.03;;;;;;;34.91;29.63;98792.47;5076320;28;20187;-89
2023/09/24 08:55:14;;;;;;;12.65;2.65;;;;;;;35.07;28.62;98790.88;5076359;28;20174;-88
2023/09/24 08:57:42;;;;;;;11.18;2.50;;;;;;;35.16;29.14;98792.13;5076284;28;20185;-89
2023/09/24 09:00:11;;;;;;;7.30;2.53;;;;;;;35.35;28.67;98793.56;5058641;28;20184;-88
2023/09/24 09:02:39;;;;;;;9.13;3.03;;;;;;;35.47;28.70;98788.00;5075845;28;20214;-89
2023/09/24 09:05:12;;;;;;;10.65;2.70;;;;;;;35.25;27.94;98798.81;5076338;28;20201;-89
2023/09/24 09:07:55;;;;;;;8.75;2.25;;;;;;;35.17;27.78;98788.31;5076371;28;20177;-88
2023/09/24 09:10:27;;;;;;;7.53;2.33;;;;;;;35.33;29.31;98792.13;5075790;28;20185;-89
2023/09/24 09:13:12;;;;;;;11.73;3.17;;;;;;;35.52;28.43;98782.63;5058335;28;20643;-89
2023/09/24 09:15:39;;;;;;;6.18;2.45;;;;;;;35.56;27.63;98781.91;5076267;28;20499;-87
2023/09/24 09:18:05;;;;;;;6.82;3.17;;;;;;;35.77;28.50;98774.88;5075680;28;20618;-89
2023/09/24 09:20:45;;;;;;;8.60;2.65;;;;;;;36.14;27.98;98770.47;5075789;28;20188;-89
2023/09/24 09:23:17;;;;;;;11.77;3.05;;;;;;;36.34;27.79;98767.16;5076021;28;20176;-89
2023/09/24 09:25:52;;;;;;;11.85;2.28;;;;;;;36.34;25.88;98768.00;5075539;28;20280;-89
2023/09/24 09:28:26;;;;;;;11.95;2.55;;;;;;;36.42;26.91;98769.44;5076321;28;20153;-89
2023/09/24 09:31:07;;;;;;;9.95;2.47;;;;;;;36.36;26.03;98767.72;5075608;28;20173;-88
2023/09/24 09:33:44;;;;;;;14.88;3.20;;;;;;;36.45;26.08;98758.00;5059061;28;20633;-89
2023/09/24 09:36:28;;;;;;;10.85;2.95;;;;;;;36.41;26.95;98764.22;5075853;28;20238;-89
2023/09/24 09:39:00;;;;;;;18.55;2.97;;;;;;;36.13;26.86;98768.81;5057876;28;20592;-89
2023/09/24 09:41:28;;;;;;;4.90;2.65;;;;;;;36.30;26.09;98769.56;5075422;28;20177;-88
2023/09/24 09:43:54;;;;;;;15.07;2.85;;;;;;;36.27;26.64;98769.25;5075140;28;20196;-89
2023/09/24 09:46:22;;;;;;;10.02;2.70;;;;;;;36.47;26.39;98764.03;5057789;28;20271;-89
2023/09/24 09:49:02;;;;;;;8.93;3.30;;;;;;;36.73;25.94;98765.97;5057659;28;20185;-88
2023/09/24 09:51:44;;;;;;;8.50;2.63;;;;;;;37.04;26.75;98753.44;5075054;28;20177;-89
2023/09/24 09:54:11;;;;;;;14.73;3.58;;;;;;;37.02;24.67;98754.78;5075502;28;20586;-88
2023/09/24 09:56:39;;;;;;;13.15;3.15;;;;;;;36.88;26.41;98752.47;5075046;28;20252;-90
2023/09/24 09:59:07;;;;;;;12.75;3.53;;;;;;;37.00;25.51;98751.50;5075176;28;20204;-88
2023/09/24 10:01:33;;;;;;;12.85;3.15;;;;;;;36.57;26.21;98753.25;5061284;28;20212;-88
2023/09/24 10:04:04;;;;;;;12.32;2.97;;;;;;;36.41;25.62;98742.38;5074850;28;20189;-88
2023/09/24 10:06:37;;;;;;;8.38;2.45;;;;;;;36.69;26.27;98745.72;5074954;28;20183;-88
2023/09/24 10:09:22;;;;;;;12.80;2.83;;;;;;;37.00;25.99;98735.09;5057178;28;20165;-89
2023/09/24 10:11:52;;;;;;;9.57;2.60;;;;;;;37.04;25.17;98731.59;5057293;28;20173;-89
2023/09/24 10:14:55;;;;;;;6.75;2.58;;;;;;;37.13;25.12;98731.94;5065630;28;20178;-89
2023/09/24 10:17:25;;;;;;;8.07;2.20;;;;;;;37.40;25.41;98725.31;5004212;28;20638;-90
2023/09/24 10:20:18;;;;;;;9.25;2.55;;;;;;;37.53;25.17;98724.84;5037257;28;20630;-89
2023/09/24 10:22:44;;;;;;;8.75;2.75;;;;;;;37.58;24.66;98724.06;5056351;28;20173;-88
2023/09/24 10:25:39;;;;;;;9.02;2.40;;;;;;;37.75;25.55;98727.44;5074817;28;20220;-89
2023/09/24 10:28:06;;;;;;;9.00;2.90;;;;;;;37.76;25.36;98720.91;5074760;28;20169;-90
2023/09/24 10:31:04;;;;;;;9.23;2.80;;;;;;;37.81;24.97;98715.44;5074586;28;20242;-89
2023/09/24 10:33:57;;;;;;;5.72;2.30;;;;;;;37.90;25.28;98713.88;5067677;28;20276;-90
2023/09/24 10:36:30;;;;;;;10.70;2.42;;;;;;;37.83;24.96;98717.91;5074714;28;20157;-89
2023/09/24 10:39:13;;;;;;;7.30;2.22;;;;;;;38.02;25.37;98730.91;5074932;28;20153;-89
2023/09/24 10:42:10;;;;;;;9.13;2.50;;;;;;;38.06;24.56;98720.22;5056672;28;20649;-89
2023/09/24 10:44:38;;;;;;;7.20;2.63;;;;;;;38.29;24.61;98708.00;5073295;28;20201;-90
2023/09/24 10:47:27;;;;;;;7.70;3.13;;;;;;;38.56;24.26;98700.41;5056397;28;20225;-90
2023/09/24 10:50:06;;;;;;;9.52;2.67;;;;;;;38.63;23.53;98703.69;5073971;28;20173;-88
2023/09/24 10:53:01;;;;;;;10.35;3.05;;;;;;;38.59;23.69;98700.69;5074083;28;20180;-89
2023/09/24 10:55:27;;;;;;;12.93;2.80;;;;;;;38.52;23.89;98704.78;5073902;28;20246;-88
2023/09/24 10:57:56;;;;;;;9.05;2.33;;;;;;;38.59;23.26;98702.59;5073954;28;20173;-89
2023/09/24 11:00:25;;;;;;;5.68;2.60;;;;;;;38.31;23.38;98692.16;5056260;28;20185;-89
2023/09/24 11:02:59;;;;;;;12.38;2.55;;;;;;;38.61;23.42;98695.75;5073892;28;20176;-88
2023/09/24 11:05:27;;;;;;;11.73;2.50;;;;;;;38.89;23.74;98690.88;5073639;28;20211;-89
2023/09/24 11:07:53;;;;;;;8.57;2.45;;;;;;;39.02;24.03;98685.63;5056408;28;20579;-89
2023/09/24 11:10:25;;;;;;;5.60;2.20;;;;;;;38.93;22.49;98681.81;5073595;28;20188;-87
2023/09/24 11:13:00;;;;;;;6.40;2.60;;;;;;;38.73;23.26;98673.56;5074294;28;20157;-89
2023/09/24 11:15:30;;;;;;;10.48;2.58;;;;;;;38.65;22.94;98674.13;5073568;28;20173;-89
2023/09/24 11:17:57;;;;;;;8.40;2.70;;;;;;;38.94;23.81;98667.03;5056016;28;20187;-89
2023/09/24 11:20:25;;;;;;;11.13;2.20;;;;;;;39.39;23.41;98666.13;5073554;28;20600;-89
2023/09/24 11:23:11;;;;;;;8.05;1.75;;;;;;;39.76;23.38;98663.03;5073343;28;20200;-89
2023/09/24 11:25:46;;;;;;;6.45;2.40;;;;;;;39.61;22.02;98655.66;5073713;28;20626;-88
2023/09/24 11:28:12;;;;;;;9.70;1.70;;;;;;;39.64;22.00;98660.63;5073407;28;20267;-88
2023/09/24 11:30:51;;;;;;;12.13;1.98;;;;;;;39.49;22.13;98662.56;5073376;28;20255;-89
2023/09/24 11:33:22;;;;;;;6.85;2.05;;;;;;;39.37;21.34;98657.38;5073429;28;20176;-88
2023/09/24 11:35:53;;;;;;;10.10;1.95;;;;;;;39.43;22.27;98655.44;5073413;28;20219;-88
2023/09/24 11:38:33;;;;;;;9.15;1.88;;;;;;;39.70;22.52;98645.75;5055989;28;20576;-88